sensor_id;sensor_type;location;lat;lon;timestamp;temperature;humidity
76345;DHT22;65160;50.504;3.666;2023-03-01T00:01:41;-0.20;71.41
76345;DHT22;65160;50.504;3.666;2023-03-01T00:04:06;-0.18;71.51
76345;DHT22;65160;50.504;3.666;2023-03-01T00:06:32;-0.17;71.13
76345;DHT22;65160;50.504;3.666;2023-03-01T00:08:57;-0.20;71.36
76345;DHT22;65160;50.504;3.666;2023-03-01T00:11:29;-0.23;71.54
76345;DHT22;65160;50.504;3.666;2023-03-01T00:13:57;-0.23;71.38
76345;DHT22;65160;50.504;3.666;2023-03-01T00:16:30;-0.24;71.18
76345;DHT22;65160;50.504;3.666;2023-03-01T00:18:57;-0.23;71.20
76345;DHT22;65160;50.504;3.666;2023-03-01T00:21:23;-0.24;71.09
76345;DHT22;65160;50.504;3.666;2023-03-01T00:23:49;-0.18;71.06
76345;DHT22;65160;50.504;3.666;2023-03-01T00:26:17;-0.21;71.01
76345;DHT22;65160;50.504;3.666;2023-03-01T00:28:43;-0.23;71.18
76345;DHT22;65160;50.504;3.666;2023-03-01T00:31:11;-0.20;71.24
76345;DHT22;65160;50.504;3.666;2023-03-01T00:33:37;-0.27;71.25
76345;DHT22;65160;50.504;3.666;2023-03-01T00:36:03;-0.30;71.49
76345;DHT22;65160;50.504;3.666;2023-03-01T00:38:29;-0.25;71.61
76345;DHT22;65160;50.504;3.666;2023-03-01T00:40:54;-0.30;71.50
76345;DHT22;65160;50.504;3.666;2023-03-01T00:43:20;-0.24;71.30
76345;DHT22;65160;50.504;3.666;2023-03-01T00:45:46;-0.30;71.47
76345;DHT22;65160;50.504;3.666;2023-03-01T00:48:11;-0.33;71.57
76345;DHT22;65160;50.504;3.666;2023-03-01T00:50:37;-0.37;71.73
76345;DHT22;65160;50.504;3.666;2023-03-01T00:53:02;-0.35;71.70
76345;DHT22;65160;50.504;3.666;2023-03-01T00:55:30;-0.38;71.82
76345;DHT22;65160;50.504;3.666;2023-03-01T00:57:55;-0.38;71.91
76345;DHT22;65160;50.504;3.666;2023-03-01T01:00:21;-0.38;72.08
76345;DHT22;65160;50.504;3.666;2023-03-01T01:02:47;-0.41;72.02
76345;DHT22;65160;50.504;3.666;2023-03-01T01:05:13;-0.47;72.20
76345;DHT22;65160;50.504;3.666;2023-03-01T01:07:39;-0.47;72.38
76345;DHT22;65160;50.504;3.666;2023-03-01T01:10:05;-0.41;72.25
76345;DHT22;65160;50.504;3.666;2023-03-01T01:12:32;-0.42;72.12
76345;DHT22;65160;50.504;3.666;2023-03-01T01:14:57;-0.45;72.26
76345;DHT22;65160;50.504;3.666;2023-03-01T01:17:23;-0.44;72.06
76345;DHT22;65160;50.504;3.666;2023-03-01T01:19:48;-0.41;72.10
76345;DHT22;65160;50.504;3.666;2023-03-01T01:22:14;-0.42;72.41
76345;DHT22;65160;50.504;3.666;2023-03-01T01:24:39;-0.45;72.26
76345;DHT22;65160;50.504;3.666;2023-03-01T01:27:05;-0.40;72.37
76345;DHT22;65160;50.504;3.666;2023-03-01T01:29:32;-0.41;72.18
76345;DHT22;65160;50.504;3.666;2023-03-01T01:31:58;-0.47;72.52
76345;DHT22;65160;50.504;3.666;2023-03-01T01:34:23;-0.41;72.33
76345;DHT22;65160;50.504;3.666;2023-03-01T01:36:52;-0.45;72.58
76345;DHT22;65160;50.504;3.666;2023-03-01T01:39:21;-0.54;72.65
76345;DHT22;65160;50.504;3.666;2023-03-01T01:41:47;-0.61;73.08
76345;DHT22;65160;50.504;3.666;2023-03-01T01:44:18;-0.68;73.19
76345;DHT22;65160;50.504;3.666;2023-03-01T01:46:47;-0.64;73.35
76345;DHT22;65160;50.504;3.666;2023-03-01T01:49:25;-0.66;73.21
76345;DHT22;65160;50.504;3.666;2023-03-01T01:51:57;-0.70;73.27
76345;DHT22;65160;50.504;3.666;2023-03-01T01:54:34;-0.75;73.07
76345;DHT22;65160;50.504;3.666;2023-03-01T01:57:05;-0.70;73.21
76345;DHT22;65160;50.504;3.666;2023-03-01T01:59:32;-0.72;72.99
76345;DHT22;65160;50.504;3.666;2023-03-01T02:02:00;-0.73;73.00
76345;DHT22;65160;50.504;3.666;2023-03-01T02:04:28;-0.70;73.06
76345;DHT22;65160;50.504;3.666;2023-03-01T02:07:23;-0.78;73.44
76345;DHT22;65160;50.504;3.666;2023-03-01T02:09:51;-0.75;73.20
76345;DHT22;65160;50.504;3.666;2023-03-01T02:12:20;-0.76;73.55
76345;DHT22;65160;50.504;3.666;2023-03-01T02:14:47;-0.75;73.38
76345;DHT22;65160;50.504;3.666;2023-03-01T02:17:14;-0.82;73.66
76345;DHT22;65160;50.504;3.666;2023-03-01T02:22:33;-0.92;74.49
76345;DHT22;65160;50.504;3.666;2023-03-01T02:30:25;-0.97;74.72
76345;DHT22;65160;50.504;3.666;2023-03-01T02:32:52;-0.99;74.64
76345;DHT22;65160;50.504;3.666;2023-03-01T02:35:19;-0.99;74.98
76345;DHT22;65160;50.504;3.666;2023-03-01T02:37:45;-1.06;74.87
76345;DHT22;65160;50.504;3.666;2023-03-01T02:40:16;-1.07;75.03
76345;DHT22;65160;50.504;3.666;2023-03-01T02:42:50;-1.08;75.17
76345;DHT22;65160;50.504;3.666;2023-03-01T02:45:17;-1.08;75.19
76345;DHT22;65160;50.504;3.666;2023-03-01T02:47:43;-1.13;75.30
76345;DHT22;65160;50.504;3.666;2023-03-01T02:55:40;-1.23;75.80
76345;DHT22;65160;50.504;3.666;2023-03-01T02:58:06;-1.21;76.01
76345;DHT22;65160;50.504;3.666;2023-03-01T03:00:40;-1.28;76.19
76345;DHT22;65160;50.504;3.666;2023-03-01T03:03:13;-1.34;76.48
76345;DHT22;65160;50.504;3.666;2023-03-01T03:05:39;-1.28;76.40
76345;DHT22;65160;50.504;3.666;2023-03-01T03:08:05;-1.35;76.48
76345;DHT22;65160;50.504;3.666;2023-03-01T03:10:37;-1.35;76.42
76345;DHT22;65160;50.504;3.666;2023-03-01T03:13:10;-1.33;76.51
76345;DHT22;65160;50.504;3.666;2023-03-01T03:15:36;-1.34;76.48
76345;DHT22;65160;50.504;3.666;2023-03-01T03:18:06;-1.35;76.57
76345;DHT22;65160;50.504;3.666;2023-03-01T03:20:32;-1.35;76.44
76345;DHT22;65160;50.504;3.666;2023-03-01T03:22:58;-1.35;76.53
76345;DHT22;65160;50.504;3.666;2023-03-01T03:25:25;-1.30;76.43
76345;DHT22;65160;50.504;3.666;2023-03-01T03:27:52;-1.27;76.18
76345;DHT22;65160;50.504;3.666;2023-03-01T03:30:30;-1.33;76.18
76345;DHT22;65160;50.504;3.666;2023-03-01T03:32:56;-1.38;76.61
76345;DHT22;65160;50.504;3.666;2023-03-01T03:35:31;-1.38;76.46
76345;DHT22;65160;50.504;3.666;2023-03-01T03:37:59;-1.38;76.61
76345;DHT22;65160;50.504;3.666;2023-03-01T03:40:35;-1.40;76.61
76345;DHT22;65160;50.504;3.666;2023-03-01T03:43:05;-1.40;76.46
76345;DHT22;65160;50.504;3.666;2023-03-01T03:45:31;-1.44;76.79
76345;DHT22;65160;50.504;3.666;2023-03-01T03:47:59;-1.47;76.71
76345;DHT22;65160;50.504;3.666;2023-03-01T03:50:25;-1.50;76.91
76345;DHT22;65160;50.504;3.666;2023-03-01T03:52:50;-1.52;76.89
76345;DHT22;65160;50.504;3.666;2023-03-01T03:55:16;-1.52;76.99
76345;DHT22;65160;50.504;3.666;2023-03-01T03:57:45;-1.48;77.21
76345;DHT22;65160;50.504;3.666;2023-03-01T04:00:18;-1.41;77.13
76345;DHT22;65160;50.504;3.666;2023-03-01T04:02:45;-1.44;77.13
76345;DHT22;65160;50.504;3.666;2023-03-01T04:05:12;-1.41;77.08
76345;DHT22;65160;50.504;3.666;2023-03-01T04:07:40;-1.45;77.05
76345;DHT22;65160;50.504;3.666;2023-03-01T04:10:14;-1.51;77.02
76345;DHT22;65160;50.504;3.666;2023-03-01T04:12:40;-1.51;77.11
76345;DHT22;65160;50.504;3.666;2023-03-01T04:15:07;-1.55;77.39
76345;DHT22;65160;50.504;3.666;2023-03-01T04:17:43;-1.56;77.33
76345;DHT22;65160;50.504;3.666;2023-03-01T04:20:11;-1.62;77.30
76345;DHT22;65160;50.504;3.666;2023-03-01T04:22:38;-1.64;77.48
76345;DHT22;65160;50.504;3.666;2023-03-01T04:25:04;-1.72;77.74
76345;DHT22;65160;50.504;3.666;2023-03-01T04:27:34;-1.75;78.00
76345;DHT22;65160;50.504;3.666;2023-03-01T04:30:00;-1.75;77.94
76345;DHT22;65160;50.504;3.666;2023-03-01T04:32:25;-1.79;78.13
76345;DHT22;65160;50.504;3.666;2023-03-01T04:34:51;-1.76;78.19
76345;DHT22;65160;50.504;3.666;2023-03-01T04:37:16;-1.76;78.03
76345;DHT22;65160;50.504;3.666;2023-03-01T04:39:42;-1.72;77.87
76345;DHT22;65160;50.504;3.666;2023-03-01T04:42:13;-1.79;77.99
76345;DHT22;65160;50.504;3.666;2023-03-01T04:44:39;-1.86;78.40
76345;DHT22;65160;50.504;3.666;2023-03-01T04:47:05;-1.86;78.49
76345;DHT22;65160;50.504;3.666;2023-03-01T04:49:30;-1.83;78.53
76345;DHT22;65160;50.504;3.666;2023-03-01T04:51:57;-1.85;78.55
76345;DHT22;65160;50.504;3.666;2023-03-01T04:54:31;-1.86;78.73
76345;DHT22;65160;50.504;3.666;2023-03-01T04:56:57;-1.90;78.83
76345;DHT22;65160;50.504;3.666;2023-03-01T04:59:22;-1.90;78.89
76345;DHT22;65160;50.504;3.666;2023-03-01T05:01:52;-1.89;78.87
76345;DHT22;65160;50.504;3.666;2023-03-01T05:04:21;-1.87;78.96
76345;DHT22;65160;50.504;3.666;2023-03-01T05:06:46;-1.86;78.78
76345;DHT22;65160;50.504;3.666;2023-03-01T05:09:12;-1.89;78.86
76345;DHT22;65160;50.504;3.666;2023-03-01T05:11:37;-1.92;79.02
76345;DHT22;65160;50.504;3.666;2023-03-01T05:14:04;-1.93;79.04
76345;DHT22;65160;50.504;3.666;2023-03-01T05:16:29;-1.93;79.02
76345;DHT22;65160;50.504;3.666;2023-03-01T05:18:56;-1.97;79.18
76345;DHT22;65160;50.504;3.666;2023-03-01T05:21:22;-1.97;79.25
76345;DHT22;65160;50.504;3.666;2023-03-01T05:23:48;-2.00;79.38
76345;DHT22;65160;50.504;3.666;2023-03-01T05:26:14;-1.93;79.36
76345;DHT22;65160;50.504;3.666;2023-03-01T05:28:40;-1.99;79.40
76345;DHT22;65160;50.504;3.666;2023-03-01T05:31:06;-1.99;79.49
76345;DHT22;65160;50.504;3.666;2023-03-01T05:33:38;-1.94;79.48
76345;DHT22;65160;50.504;3.666;2023-03-01T05:36:05;-1.97;79.47
76345;DHT22;65160;50.504;3.666;2023-03-01T05:38:31;-1.96;79.33
76345;DHT22;65160;50.504;3.666;2023-03-01T05:40:57;-1.99;79.55
76345;DHT22;65160;50.504;3.666;2023-03-01T05:43:22;-1.97;79.51
76345;DHT22;65160;50.504;3.666;2023-03-01T05:45:48;-2.03;79.69
76345;DHT22;65160;50.504;3.666;2023-03-01T05:48:14;-2.00;79.64
76345;DHT22;65160;50.504;3.666;2023-03-01T05:50:42;-1.97;79.60
76345;DHT22;65160;50.504;3.666;2023-03-01T05:53:14;-2.00;79.59
76345;DHT22;65160;50.504;3.666;2023-03-01T05:55:40;-1.99;79.68
76345;DHT22;65160;50.504;3.666;2023-03-01T05:58:08;-2.03;79.55
76345;DHT22;65160;50.504;3.666;2023-03-01T06:00:35;-2.03;79.67
76345;DHT22;65160;50.504;3.666;2023-03-01T06:03:01;-2.04;79.65
76345;DHT22;65160;50.504;3.666;2023-03-01T06:05:27;-2.07;79.62
76345;DHT22;65160;50.504;3.666;2023-03-01T06:07:53;-2.13;79.69
76345;DHT22;65160;50.504;3.666;2023-03-01T06:10:20;-2.15;79.65
76345;DHT22;65160;50.504;3.666;2023-03-01T06:12:45;-2.11;79.67
76345;DHT22;65160;50.504;3.666;2023-03-01T06:15:13;-2.14;79.61
76345;DHT22;65160;50.504;3.666;2023-03-01T06:17:41;-2.11;79.64
76345;DHT22;65160;50.504;3.666;2023-03-01T06:20:14;-2.11;79.53
76345;DHT22;65160;50.504;3.666;2023-03-01T06:22:40;-2.11;79.66
76345;DHT22;65160;50.504;3.666;2023-03-01T06:25:07;-2.13;79.59
76345;DHT22;65160;50.504;3.666;2023-03-01T06:27:34;-2.13;79.65
76345;DHT22;65160;50.504;3.666;2023-03-01T06:29:59;-2.15;79.65
76345;DHT22;65160;50.504;3.666;2023-03-01T06:32:25;-2.15;79.56
76345;DHT22;65160;50.504;3.666;2023-03-01T06:34:50;-2.15;79.84
76345;DHT22;65160;50.504;3.666;2023-03-01T06:37:16;-2.21;79.85
76345;DHT22;65160;50.504;3.666;2023-03-01T06:39:42;-2.24;79.97
76345;DHT22;65160;50.504;3.666;2023-03-01T06:42:08;-2.24;80.00
76345;DHT22;65160;50.504;3.666;2023-03-01T06:44:35;-2.23;80.02
76345;DHT22;65160;50.504;3.666;2023-03-01T06:47:01;-2.24;79.97
76345;DHT22;65160;50.504;3.666;2023-03-01T06:49:27;-2.21;80.01
76345;DHT22;65160;50.504;3.666;2023-03-01T06:51:52;-2.20;79.98
76345;DHT22;65160;50.504;3.666;2023-03-01T06:54:18;-2.19;79.91
76345;DHT22;65160;50.504;3.666;2023-03-01T06:56:46;-2.15;79.96
76345;DHT22;65160;50.504;3.666;2023-03-01T06:59:12;-2.09;79.90
76345;DHT22;65160;50.504;3.666;2023-03-01T07:01:38;-2.03;79.67
76345;DHT22;65160;50.504;3.666;2023-03-01T07:04:04;-1.94;79.55
76345;DHT22;65160;50.504;3.666;2023-03-01T07:06:30;-1.93;79.43
76345;DHT22;65160;50.504;3.666;2023-03-01T07:08:55;-1.89;79.39
76345;DHT22;65160;50.504;3.666;2023-03-01T07:11:22;-1.82;79.22
76345;DHT22;65160;50.504;3.666;2023-03-01T07:13:48;-1.81;79.17
76345;DHT22;65160;50.504;3.666;2023-03-01T07:16:14;-1.72;79.03
76345;DHT22;65160;50.504;3.666;2023-03-01T07:18:40;-1.68;78.95
76345;DHT22;65160;50.504;3.666;2023-03-01T07:21:07;-1.56;78.81
76345;DHT22;65160;50.504;3.666;2023-03-01T07:23:33;-1.50;78.55
76345;DHT22;65160;50.504;3.666;2023-03-01T07:25:59;-1.40;78.41
76345;DHT22;65160;50.504;3.666;2023-03-01T07:28:25;-1.28;78.23
76345;DHT22;65160;50.504;3.666;2023-03-01T07:30:51;-1.17;77.99
76345;DHT22;65160;50.504;3.666;2023-03-01T07:33:17;-1.11;77.82
76345;DHT22;65160;50.504;3.666;2023-03-01T07:35:42;-1.00;77.67
76345;DHT22;65160;50.504;3.666;2023-03-01T07:38:08;-0.92;77.67
76345;DHT22;65160;50.504;3.666;2023-03-01T07:40:35;-0.82;77.20
76345;DHT22;65160;50.504;3.666;2023-03-01T07:43:00;-0.70;76.78
76345;DHT22;65160;50.504;3.666;2023-03-01T07:45:27;-0.54;76.43
76345;DHT22;65160;50.504;3.666;2023-03-01T07:47:53;-0.42;76.22
76345;DHT22;65160;50.504;3.666;2023-03-01T07:50:19;-0.35;75.79
76345;DHT22;65160;50.504;3.666;2023-03-01T07:52:46;-0.28;75.00
76345;DHT22;65160;50.504;3.666;2023-03-01T07:55:12;-0.17;74.76
76345;DHT22;65160;50.504;3.666;2023-03-01T07:57:38;-0.03;74.53
76345;DHT22;65160;50.504;3.666;2023-03-01T08:00:05;0.04;73.89
76345;DHT22;65160;50.504;3.666;2023-03-01T08:02:31;0.18;73.79
76345;DHT22;65160;50.504;3.666;2023-03-01T08:04:56;0.28;73.24
76345;DHT22;65160;50.504;3.666;2023-03-01T08:07:22;0.41;73.14
76345;DHT22;65160;50.504;3.666;2023-03-01T08:09:47;0.52;72.47
76345;DHT22;65160;50.504;3.666;2023-03-01T08:12:13;0.58;72.03
76345;DHT22;65160;50.504;3.666;2023-03-01T08:14:38;0.65;72.54
76345;DHT22;65160;50.504;3.666;2023-03-01T08:17:04;0.70;71.80
76345;DHT22;65160;50.504;3.666;2023-03-01T08:19:30;0.77;71.21
76345;DHT22;65160;50.504;3.666;2023-03-01T08:21:55;0.93;71.51
76345;DHT22;65160;50.504;3.666;2023-03-01T08:24:23;1.16;70.93
76345;DHT22;65160;50.504;3.666;2023-03-01T08:26:49;1.14;69.77
76345;DHT22;65160;50.504;3.666;2023-03-01T08:29:14;1.30;69.81
76345;DHT22;65160;50.504;3.666;2023-03-01T08:31:40;1.36;69.90
76345;DHT22;65160;50.504;3.666;2023-03-01T08:34:12;1.36;69.28
76345;DHT22;65160;50.504;3.666;2023-03-01T08:36:40;1.35;68.95
76345;DHT22;65160;50.504;3.666;2023-03-01T08:39:07;1.51;69.07
76345;DHT22;65160;50.504;3.666;2023-03-01T08:41:33;1.59;68.10
76345;DHT22;65160;50.504;3.666;2023-03-01T08:43:58;1.72;67.44
76345;DHT22;65160;50.504;3.666;2023-03-01T08:46:34;1.83;67.48
76345;DHT22;65160;50.504;3.666;2023-03-01T08:49:04;2.01;67.39
76345;DHT22;65160;50.504;3.666;2023-03-01T08:51:30;2.09;67.90
76345;DHT22;65160;50.504;3.666;2023-03-01T08:53:57;2.29;66.62
76345;DHT22;65160;50.504;3.666;2023-03-01T08:56:23;2.58;66.08
76345;DHT22;65160;50.504;3.666;2023-03-01T08:58:48;2.59;64.83
76345;DHT22;65160;50.504;3.666;2023-03-01T09:01:16;2.56;64.52
76345;DHT22;65160;50.504;3.666;2023-03-01T09:03:43;2.63;64.57
76345;DHT22;65160;50.504;3.666;2023-03-01T09:06:09;2.76;64.40
76345;DHT22;65160;50.504;3.666;2023-03-01T09:08:37;2.85;64.12
76345;DHT22;65160;50.504;3.666;2023-03-01T09:11:04;2.79;64.76
76345;DHT22;65160;50.504;3.666;2023-03-01T09:13:29;2.93;63.43
76345;DHT22;65160;50.504;3.666;2023-03-01T09:15:59;2.96;64.06
76345;DHT22;65160;50.504;3.666;2023-03-01T09:18:25;3.08;62.92
76345;DHT22;65160;50.504;3.666;2023-03-01T09:20:51;3.10;63.14
76345;DHT22;65160;50.504;3.666;2023-03-01T09:23:16;3.39;62.66
76345;DHT22;65160;50.504;3.666;2023-03-01T09:25:42;3.48;61.81
76345;DHT22;65160;50.504;3.666;2023-03-01T09:28:07;3.58;62.04
76345;DHT22;65160;50.504;3.666;2023-03-01T09:30:33;3.86;61.36
76345;DHT22;65160;50.504;3.666;2023-03-01T09:32:58;4.01;60.87
76345;DHT22;65160;50.504;3.666;2023-03-01T09:35:24;4.14;61.02
76345;DHT22;65160;50.504;3.666;2023-03-01T09:37:50;4.30;61.06
76345;DHT22;65160;50.504;3.666;2023-03-01T09:40:19;4.52;59.61
76345;DHT22;65160;50.504;3.666;2023-03-01T09:43:13;4.31;58.44
76345;DHT22;65160;50.504;3.666;2023-03-01T09:45:35;4.22;59.98
76345;DHT22;65160;50.504;3.666;2023-03-01T09:48:03;4.22;59.68
76345;DHT22;65160;50.504;3.666;2023-03-01T09:50:35;4.17;59.99
76345;DHT22;65160;50.504;3.666;2023-03-01T09:53:10;4.45;59.44
76345;DHT22;65160;50.504;3.666;2023-03-01T09:56:00;4.55;58.07
76345;DHT22;65160;50.504;3.666;2023-03-01T09:58:52;4.65;58.68
76345;DHT22;65160;50.504;3.666;2023-03-01T10:06:31;4.91;55.95
76345;DHT22;65160;50.504;3.666;2023-03-01T10:09:15;4.84;57.14
76345;DHT22;65160;50.504;3.666;2023-03-01T10:11:45;5.04;56.58
76345;DHT22;65160;50.504;3.666;2023-03-01T10:16:54;5.37;55.70
76345;DHT22;65160;50.504;3.666;2023-03-01T10:19:30;5.34;55.33
76345;DHT22;65160;50.504;3.666;2023-03-01T10:22:02;5.60;54.63
76345;DHT22;65160;50.504;3.666;2023-03-01T10:24:32;5.83;53.18
76345;DHT22;65160;50.504;3.666;2023-03-01T10:27:10;5.63;53.69
76345;DHT22;65160;50.504;3.666;2023-03-01T10:29:45;5.51;54.02
76345;DHT22;65160;50.504;3.666;2023-03-01T10:32:11;5.72;53.57
76345;DHT22;65160;50.504;3.666;2023-03-01T10:34:37;5.75;53.33
76345;DHT22;65160;50.504;3.666;2023-03-01T10:37:12;5.70;52.91
76345;DHT22;65160;50.504;3.666;2023-03-01T10:39:55;5.72;52.66
76345;DHT22;65160;50.504;3.666;2023-03-01T10:42:32;5.94;52.26
76345;DHT22;65160;50.504;3.666;2023-03-01T10:45:16;5.79;51.25
76345;DHT22;65160;50.504;3.666;2023-03-01T10:47:42;6.13;52.24
76345;DHT22;65160;50.504;3.666;2023-03-01T10:50:21;6.21;49.55
76345;DHT22;65160;50.504;3.666;2023-03-01T10:53:02;6.35;50.81
76345;DHT22;65160;50.504;3.666;2023-03-01T10:55:35;6.24;50.18
76345;DHT22;65160;50.504;3.666;2023-03-01T10:58:18;5.94;51.40
76345;DHT22;65160;50.504;3.666;2023-03-01T11:00:56;5.77;51.77
76345;DHT22;65160;50.504;3.666;2023-03-01T11:03:24;5.67;52.70
76345;DHT22;65160;50.504;3.666;2023-03-01T11:05:57;6.14;51.70
76345;DHT22;65160;50.504;3.666;2023-03-01T11:11:17;6.49;49.41
76345;DHT22;65160;50.504;3.666;2023-03-01T11:13:56;6.52;49.07
76345;DHT22;65160;50.504;3.666;2023-03-01T11:16:40;6.78;47.20
76345;DHT22;65160;50.504;3.666;2023-03-01T11:21:37;7.78;46.03
76345;DHT22;65160;50.504;3.666;2023-03-01T11:24:08;7.72;45.68
76345;DHT22;65160;50.504;3.666;2023-03-01T11:26:37;7.44;46.24
76345;DHT22;65160;50.504;3.666;2023-03-01T11:29:10;7.66;45.52
76345;DHT22;65160;50.504;3.666;2023-03-01T11:31:37;7.79;44.81
76345;DHT22;65160;50.504;3.666;2023-03-01T11:34:13;7.47;45.81
76345;DHT22;65160;50.504;3.666;2023-03-01T11:36:56;7.62;45.73
76345;DHT22;65160;50.504;3.666;2023-03-01T11:42:14;7.66;46.72
76345;DHT22;65160;50.504;3.666;2023-03-01T11:44:41;8.13;44.65
76345;DHT22;65160;50.504;3.666;2023-03-01T11:47:37;7.97;45.16
76345;DHT22;65160;50.504;3.666;2023-03-01T11:50:26;7.45;46.04
76345;DHT22;65160;50.504;3.666;2023-03-01T11:56:16;7.87;45.44
76345;DHT22;65160;50.504;3.666;2023-03-01T11:59:24;8.49;43.84
76345;DHT22;65160;50.504;3.666;2023-03-01T12:02:12;7.93;44.64
76345;DHT22;65160;50.504;3.666;2023-03-01T12:11:18;7.97;45.14
76345;DHT22;65160;50.504;3.666;2023-03-01T12:22:25;8.23;44.57
76345;DHT22;65160;50.504;3.666;2023-03-01T12:31:08;8.00;45.15
76345;DHT22;65160;50.504;3.666;2023-03-01T12:33:49;7.83;45.61
76345;DHT22;65160;50.504;3.666;2023-03-01T12:39:36;8.24;44.60
76345;DHT22;65160;50.504;3.666;2023-03-01T12:47:30;8.72;43.47
76345;DHT22;65160;50.504;3.666;2023-03-01T12:50:04;8.80;44.68
76345;DHT22;65160;50.504;3.666;2023-03-01T12:52:44;8.66;43.50
76345;DHT22;65160;50.504;3.666;2023-03-01T12:58:19;9.07;42.31
76345;DHT22;65160;50.504;3.666;2023-03-01T13:06:29;9.17;42.63
76345;DHT22;65160;50.504;3.666;2023-03-01T13:09:19;9.48;41.52
76345;DHT22;65160;50.504;3.666;2023-03-01T13:11:45;9.27;42.37
76345;DHT22;65160;50.504;3.666;2023-03-01T13:16:46;9.14;42.40
76345;DHT22;65160;50.504;3.666;2023-03-01T13:19:27;8.80;44.21
76345;DHT22;65160;50.504;3.666;2023-03-01T13:21:57;8.99;43.97
76345;DHT22;65160;50.504;3.666;2023-03-01T13:32:35;9.42;42.77
76345;DHT22;65160;50.504;3.666;2023-03-01T13:37:40;9.14;43.56
76345;DHT22;65160;50.504;3.666;2023-03-01T13:42:49;9.04;42.44
76345;DHT22;65160;50.504;3.666;2023-03-01T13:48:01;9.45;41.31
76345;DHT22;65160;50.504;3.666;2023-03-01T13:50:29;9.79;40.31
76345;DHT22;65160;50.504;3.666;2023-03-01T13:52:59;10.68;38.17
76345;DHT22;65160;50.504;3.666;2023-03-01T13:55:36;10.80;38.56
76345;DHT22;65160;50.504;3.666;2023-03-01T13:58:13;11.83;36.13
76345;DHT22;65160;50.504;3.666;2023-03-01T14:00:40;11.37;36.37
76345;DHT22;65160;50.504;3.666;2023-03-01T14:03:11;10.95;37.78
76345;DHT22;65160;50.504;3.666;2023-03-01T14:05:39;11.30;36.29
76345;DHT22;65160;50.504;3.666;2023-03-01T14:08:19;12.13;35.76
76345;DHT22;65160;50.504;3.666;2023-03-01T14:21:46;11.81;36.37
76345;DHT22;65160;50.504;3.666;2023-03-01T14:24:20;12.53;34.70
76345;DHT22;65160;50.504;3.666;2023-03-01T14:26:47;12.51;35.17
76345;DHT22;65160;50.504;3.666;2023-03-01T14:29:36;12.93;33.74
76345;DHT22;65160;50.504;3.666;2023-03-01T14:32:21;12.57;34.81
76345;DHT22;65160;50.504;3.666;2023-03-01T14:34:49;12.64;34.15
76345;DHT22;65160;50.504;3.666;2023-03-01T14:37:33;12.08;35.93
76345;DHT22;65160;50.504;3.666;2023-03-01T14:40:01;12.57;33.62
76345;DHT22;65160;50.504;3.666;2023-03-01T14:42:34;12.92;34.02
76345;DHT22;65160;50.504;3.666;2023-03-01T14:45:00;12.71;33.76
76345;DHT22;65160;50.504;3.666;2023-03-01T14:47:29;11.68;34.54
76345;DHT22;65160;50.504;3.666;2023-03-01T14:50:05;10.88;35.24
76345;DHT22;65160;50.504;3.666;2023-03-01T14:52:40;10.86;36.91
76345;DHT22;65160;50.504;3.666;2023-03-01T14:55:18;11.22;35.81
76345;DHT22;65160;50.504;3.666;2023-03-01T14:57:47;11.33;35.51
76345;DHT22;65160;50.504;3.666;2023-03-01T15:00:25;10.95;35.38
76345;DHT22;65160;50.504;3.666;2023-03-01T15:02:54;11.09;35.36
76345;DHT22;65160;50.504;3.666;2023-03-01T15:05:29;10.65;36.85
76345;DHT22;65160;50.504;3.666;2023-03-01T15:07:57;10.96;37.00
76345;DHT22;65160;50.504;3.666;2023-03-01T15:10:27;11.45;35.83
76345;DHT22;65160;50.504;3.666;2023-03-01T15:12:53;11.22;36.51
76345;DHT22;65160;50.504;3.666;2023-03-01T15:15:31;11.41;35.81
76345;DHT22;65160;50.504;3.666;2023-03-01T15:17:59;11.33;35.83
76345;DHT22;65160;50.504;3.666;2023-03-01T15:20:27;11.30;35.79
76345;DHT22;65160;50.504;3.666;2023-03-01T15:22:55;11.09;35.39
76345;DHT22;65160;50.504;3.666;2023-03-01T15:25:25;10.23;37.66
76345;DHT22;65160;50.504;3.666;2023-03-01T15:27:53;9.96;37.68
76345;DHT22;65160;50.504;3.666;2023-03-01T15:30:28;10.31;37.72
76345;DHT22;65160;50.504;3.666;2023-03-01T15:33:20;10.96;36.85
76345;DHT22;65160;50.504;3.666;2023-03-01T15:35:54;10.24;37.76
76345;DHT22;65160;50.504;3.666;2023-03-01T15:38:50;10.82;36.27
76345;DHT22;65160;50.504;3.666;2023-03-01T15:41:45;11.05;36.02
76345;DHT22;65160;50.504;3.666;2023-03-01T15:44:25;10.91;36.43
76345;DHT22;65160;50.504;3.666;2023-03-01T15:46:51;10.55;36.61
76345;DHT22;65160;50.504;3.666;2023-03-01T15:51:53;9.62;38.55
76345;DHT22;65160;50.504;3.666;2023-03-01T15:54:22;9.63;37.96
76345;DHT22;65160;50.504;3.666;2023-03-01T15:56:48;9.83;37.53
76345;DHT22;65160;50.504;3.666;2023-03-01T15:59:14;10.03;37.73
76345;DHT22;65160;50.504;3.666;2023-03-01T16:01:44;9.72;38.75
76345;DHT22;65160;50.504;3.666;2023-03-01T16:04:10;10.09;38.26
76345;DHT22;65160;50.504;3.666;2023-03-01T16:06:38;10.00;38.51
76345;DHT22;65160;50.504;3.666;2023-03-01T16:09:04;10.52;37.65
76345;DHT22;65160;50.504;3.666;2023-03-01T16:11:30;10.33;37.56
76345;DHT22;65160;50.504;3.666;2023-03-01T16:13:57;9.90;39.09
76345;DHT22;65160;50.504;3.666;2023-03-01T16:16:23;8.99;40.77
76345;DHT22;65160;50.504;3.666;2023-03-01T16:18:49;8.47;42.15
76345;DHT22;65160;50.504;3.666;2023-03-01T16:21:20;8.24;43.10
76345;DHT22;65160;50.504;3.666;2023-03-01T16:23:46;7.93;43.98
76345;DHT22;65160;50.504;3.666;2023-03-01T16:26:11;7.68;44.64
76345;DHT22;65160;50.504;3.666;2023-03-01T16:28:39;7.55;43.72
76345;DHT22;65160;50.504;3.666;2023-03-01T16:31:05;7.32;44.55
76345;DHT22;65160;50.504;3.666;2023-03-01T16:33:31;7.31;44.44
76345;DHT22;65160;50.504;3.666;2023-03-01T16:35:56;7.25;44.86
76345;DHT22;65160;50.504;3.666;2023-03-01T16:38:23;7.18;44.44
76345;DHT22;65160;50.504;3.666;2023-03-01T16:40:49;7.06;45.17
76345;DHT22;65160;50.504;3.666;2023-03-01T16:43:16;6.96;46.07
76345;DHT22;65160;50.504;3.666;2023-03-01T16:45:41;6.83;46.29
76345;DHT22;65160;50.504;3.666;2023-03-01T16:48:10;6.73;46.63
76345;DHT22;65160;50.504;3.666;2023-03-01T16:50:35;6.62;46.87
76345;DHT22;65160;50.504;3.666;2023-03-01T16:53:01;6.59;46.78
76345;DHT22;65160;50.504;3.666;2023-03-01T16:55:27;6.55;47.21
76345;DHT22;65160;50.504;3.666;2023-03-01T16:57:53;6.44;47.35
76345;DHT22;65160;50.504;3.666;2023-03-01T17:00:19;6.41;48.38
76345;DHT22;65160;50.504;3.666;2023-03-01T17:02:44;6.35;48.14
76345;DHT22;65160;50.504;3.666;2023-03-01T17:05:10;6.37;48.45
76345;DHT22;65160;50.504;3.666;2023-03-01T17:07:37;6.34;49.11
76345;DHT22;65160;50.504;3.666;2023-03-01T17:10:05;6.21;48.35
76345;DHT22;65160;50.504;3.666;2023-03-01T17:12:31;6.16;48.86
76345;DHT22;65160;50.504;3.666;2023-03-01T17:14:57;6.07;49.36
76345;DHT22;65160;50.504;3.666;2023-03-01T17:17:23;6.03;49.33
76345;DHT22;65160;50.504;3.666;2023-03-01T17:19:49;5.97;50.61
76345;DHT22;65160;50.504;3.666;2023-03-01T17:22:14;5.77;51.35
76345;DHT22;65160;50.504;3.666;2023-03-01T17:24:42;5.55;52.12
76345;DHT22;65160;50.504;3.666;2023-03-01T17:27:08;5.47;52.92
76345;DHT22;65160;50.504;3.666;2023-03-01T17:29:34;5.47;52.47
76345;DHT22;65160;50.504;3.666;2023-03-01T17:32:00;5.42;52.42
76345;DHT22;65160;50.504;3.666;2023-03-01T17:34:26;5.37;52.55